Terminal Aerodrome Forecast
Issued by NWS

Home | Current Version | Previous Version | Graphics & Text | Print | Product List | Glossary Off
Versions: 1 2 3 4 5 6 7 8 9 10 11 12 13 14 15 16

000
FTUS43 KGRB 291900 AAA
TAFCWA
TAF AMD
KCWA 291914Z 2919/3018 21015G26KT 4SM -DZ BR OVC015
      TEMPO 2919/2921 1SM -DZ BR OVC005
     FM292100 28019G32KT P6SM SCT009 BKN015
      TEMPO 2921/2922 4SM -RA BR BKN009
     FM292300 28016G32KT P6SM BKN018
     FM300200 29012KT P6SM SCT050
     FM300700 30008KT P6SM SKC=

USA.gov is the U.S. government's official web portal to all federal, state and local government web resources and services.